Terminal Aerodrome Forecast
Issued by NWS Birmingham, AL

Home | Current Version | Previous Version | Text Only | Print | Product List | Glossary On
Versions: 1 2 3 4 5 6 7 8 9 10 11 12
627
FTUS44 KBMX 302327
TAFBHM
TAF
KBHM 302327Z 3100/3124 31007KT P6SM FEW060
     FM310200 00000KT P6SM SCT250
     FM311600 31006KT P6SM SCT050=

USA.gov is the U.S. government's official web portal to all federal, state and local government web resources and services.